sensor_id;sensor_type;location;lat;lon;timestamp;temperature;humidity
58469;DHT22;44257;44.804;10.220;2023-11-21T00:01:03;9.60;99.90
58469;DHT22;44257;44.804;10.220;2023-11-21T00:03:30;9.70;99.90
58469;DHT22;44257;44.804;10.220;2023-11-21T00:05:56;9.70;99.90
58469;DHT22;44257;44.804;10.220;2023-11-21T00:08:22;9.60;99.90
58469;DHT22;44257;44.804;10.220;2023-11-21T00:10:47;9.60;99.90
58469;DHT22;44257;44.804;10.220;2023-11-21T00:13:14;9.60;99.90
58469;DHT22;44257;44.804;10.220;2023-11-21T00:15:39;9.60;99.90
58469;DHT22;44257;44.804;10.220;2023-11-21T00:18:06;9.60;99.90
58469;DHT22;44257;44.804;10.220;2023-11-21T00:20:32;9.60;99.90
58469;DHT22;44257;44.804;10.220;2023-11-21T00:22:58;9.60;99.90
58469;DHT22;44257;44.804;10.220;2023-11-21T00:25:25;9.50;99.90
58469;DHT22;44257;44.804;10.220;2023-11-21T00:27:51;9.40;99.90
58469;DHT22;44257;44.804;10.220;2023-11-21T00:30:17;9.30;99.90
58469;DHT22;44257;44.804;10.220;2023-11-21T00:32:42;9.30;99.90
58469;DHT22;44257;44.804;10.220;2023-11-21T00:35:08;9.20;99.90
58469;DHT22;44257;44.804;10.220;2023-11-21T00:37:34;9.20;99.90
58469;DHT22;44257;44.804;10.220;2023-11-21T00:40:00;9.20;99.90
58469;DHT22;44257;44.804;10.220;2023-11-21T00:42:31;9.20;99.90
58469;DHT22;44257;44.804;10.220;2023-11-21T00:44:59;9.20;99.90
58469;DHT22;44257;44.804;10.220;2023-11-21T00:47:25;9.20;99.90
58469;DHT22;44257;44.804;10.220;2023-11-21T00:49:51;9.30;99.90
58469;DHT22;44257;44.804;10.220;2023-11-21T00:52:17;9.30;99.90
58469;DHT22;44257;44.804;10.220;2023-11-21T00:54:42;9.30;99.90
58469;DHT22;44257;44.804;10.220;2023-11-21T00:57:08;9.30;99.90
58469;DHT22;44257;44.804;10.220;2023-11-21T00:59:34;9.30;99.90
58469;DHT22;44257;44.804;10.220;2023-11-21T01:02:00;9.40;99.90
58469;DHT22;44257;44.804;10.220;2023-11-21T01:04:27;9.30;99.90
58469;DHT22;44257;44.804;10.220;2023-11-21T01:06:53;9.40;99.90
58469;DHT22;44257;44.804;10.220;2023-11-21T01:09:19;9.40;99.90
58469;DHT22;44257;44.804;10.220;2023-11-21T01:11:45;9.40;99.90
58469;DHT22;44257;44.804;10.220;2023-11-21T01:14:11;9.40;99.90
58469;DHT22;44257;44.804;10.220;2023-11-21T01:16:39;9.40;99.90
58469;DHT22;44257;44.804;10.220;2023-11-21T01:19:04;9.50;99.90
58469;DHT22;44257;44.804;10.220;2023-11-21T01:21:30;9.50;99.90
58469;DHT22;44257;44.804;10.220;2023-11-21T01:23:57;9.50;99.90
58469;DHT22;44257;44.804;10.220;2023-11-21T01:26:22;9.60;99.90
58469;DHT22;44257;44.804;10.220;2023-11-21T01:28:48;9.60;99.90
58469;DHT22;44257;44.804;10.220;2023-11-21T01:31:15;9.70;99.90
58469;DHT22;44257;44.804;10.220;2023-11-21T01:33:41;9.70;99.90
58469;DHT22;44257;44.804;10.220;2023-11-21T01:36:07;9.70;99.90
58469;DHT22;44257;44.804;10.220;2023-11-21T01:38:33;9.70;99.90
58469;DHT22;44257;44.804;10.220;2023-11-21T01:40:59;9.70;99.90
58469;DHT22;44257;44.804;10.220;2023-11-21T01:43:26;9.80;99.90
58469;DHT22;44257;44.804;10.220;2023-11-21T01:45:54;9.80;99.90
58469;DHT22;44257;44.804;10.220;2023-11-21T01:48:23;9.80;99.90
58469;DHT22;44257;44.804;10.220;2023-11-21T01:50:49;9.80;99.90
58469;DHT22;44257;44.804;10.220;2023-11-21T01:53:15;9.80;99.90
58469;DHT22;44257;44.804;10.220;2023-11-21T01:55:42;9.80;99.90
58469;DHT22;44257;44.804;10.220;2023-11-21T01:58:10;9.80;99.90
58469;DHT22;44257;44.804;10.220;2023-11-21T02:00:37;9.80;99.90
58469;DHT22;44257;44.804;10.220;2023-11-21T02:03:04;9.80;99.90
58469;DHT22;44257;44.804;10.220;2023-11-21T02:05:30;9.90;99.90
58469;DHT22;44257;44.804;10.220;2023-11-21T02:07:57;9.90;99.90
58469;DHT22;44257;44.804;10.220;2023-11-21T02:10:24;9.90;99.90
58469;DHT22;44257;44.804;10.220;2023-11-21T02:12:50;10.00;99.90
58469;DHT22;44257;44.804;10.220;2023-11-21T02:15:16;9.90;99.90
58469;DHT22;44257;44.804;10.220;2023-11-21T02:17:46;9.90;99.90
58469;DHT22;44257;44.804;10.220;2023-11-21T02:20:13;10.00;99.90
58469;DHT22;44257;44.804;10.220;2023-11-21T02:22:48;9.90;99.90
58469;DHT22;44257;44.804;10.220;2023-11-21T02:25:14;9.90;99.90
58469;DHT22;44257;44.804;10.220;2023-11-21T02:27:40;9.90;99.90
58469;DHT22;44257;44.804;10.220;2023-11-21T02:30:07;9.90;99.90
58469;DHT22;44257;44.804;10.220;2023-11-21T02:32:38;9.90;99.90
58469;DHT22;44257;44.804;10.220;2023-11-21T02:35:05;9.80;99.90
58469;DHT22;44257;44.804;10.220;2023-11-21T02:37:33;9.80;99.90
58469;DHT22;44257;44.804;10.220;2023-11-21T02:40:01;9.80;99.90
58469;DHT22;44257;44.804;10.220;2023-11-21T02:42:30;9.90;99.90
58469;DHT22;44257;44.804;10.220;2023-11-21T02:44:55;9.90;99.90
58469;DHT22;44257;44.804;10.220;2023-11-21T02:47:22;9.90;99.90
58469;DHT22;44257;44.804;10.220;2023-11-21T02:49:49;9.90;99.90
58469;DHT22;44257;44.804;10.220;2023-11-21T02:52:15;10.00;99.90
58469;DHT22;44257;44.804;10.220;2023-11-21T02:54:41;10.00;99.90
58469;DHT22;44257;44.804;10.220;2023-11-21T02:57:08;10.00;99.90
58469;DHT22;44257;44.804;10.220;2023-11-21T02:59:34;10.00;99.90
58469;DHT22;44257;44.804;10.220;2023-11-21T03:02:00;9.90;99.90
58469;DHT22;44257;44.804;10.220;2023-11-21T03:04:26;9.90;99.90
58469;DHT22;44257;44.804;10.220;2023-11-21T03:06:52;9.90;99.90
58469;DHT22;44257;44.804;10.220;2023-11-21T03:09:18;9.90;99.90
58469;DHT22;44257;44.804;10.220;2023-11-21T03:11:44;9.90;99.90
58469;DHT22;44257;44.804;10.220;2023-11-21T03:14:09;9.90;99.90
58469;DHT22;44257;44.804;10.220;2023-11-21T03:16:36;9.90;99.90
58469;DHT22;44257;44.804;10.220;2023-11-21T03:19:04;9.90;99.90
58469;DHT22;44257;44.804;10.220;2023-11-21T03:21:30;9.90;99.90
58469;DHT22;44257;44.804;10.220;2023-11-21T03:23:56;9.90;99.90
58469;DHT22;44257;44.804;10.220;2023-11-21T03:26:22;9.90;99.90
58469;DHT22;44257;44.804;10.220;2023-11-21T03:28:48;9.90;99.90
58469;DHT22;44257;44.804;10.220;2023-11-21T03:31:14;9.90;99.90
58469;DHT22;44257;44.804;10.220;2023-11-21T03:33:42;9.90;99.90
58469;DHT22;44257;44.804;10.220;2023-11-21T03:36:08;9.90;99.90
58469;DHT22;44257;44.804;10.220;2023-11-21T03:38:34;9.90;99.90
58469;DHT22;44257;44.804;10.220;2023-11-21T03:41:00;9.90;99.90
58469;DHT22;44257;44.804;10.220;2023-11-21T03:43:28;9.90;99.90
58469;DHT22;44257;44.804;10.220;2023-11-21T03:45:54;9.90;99.90
58469;DHT22;44257;44.804;10.220;2023-11-21T03:48:19;9.90;99.90
58469;DHT22;44257;44.804;10.220;2023-11-21T03:50:45;9.90;99.90
58469;DHT22;44257;44.804;10.220;2023-11-21T03:53:12;9.90;99.90
58469;DHT22;44257;44.804;10.220;2023-11-21T03:55:38;9.90;99.90
58469;DHT22;44257;44.804;10.220;2023-11-21T03:58:04;9.90;99.90
58469;DHT22;44257;44.804;10.220;2023-11-21T04:00:30;9.90;99.90
58469;DHT22;44257;44.804;10.220;2023-11-21T04:02:56;9.90;99.90
58469;DHT22;44257;44.804;10.220;2023-11-21T04:05:23;9.90;99.90
58469;DHT22;44257;44.804;10.220;2023-11-21T04:07:52;9.80;99.90
58469;DHT22;44257;44.804;10.220;2023-11-21T04:10:18;9.80;99.90
58469;DHT22;44257;44.804;10.220;2023-11-21T04:12:43;9.80;99.90
58469;DHT22;44257;44.804;10.220;2023-11-21T04:15:11;9.80;99.90
58469;DHT22;44257;44.804;10.220;2023-11-21T04:17:39;9.80;99.90
58469;DHT22;44257;44.804;10.220;2023-11-21T04:20:06;9.70;99.90
58469;DHT22;44257;44.804;10.220;2023-11-21T04:22:39;9.80;99.90
58469;DHT22;44257;44.804;10.220;2023-11-21T04:25:14;9.80;99.90
58469;DHT22;44257;44.804;10.220;2023-11-21T04:27:41;9.90;99.90
58469;DHT22;44257;44.804;10.220;2023-11-21T04:30:10;9.90;99.90
58469;DHT22;44257;44.804;10.220;2023-11-21T04:32:36;9.80;99.90
58469;DHT22;44257;44.804;10.220;2023-11-21T04:35:02;9.80;99.90
58469;DHT22;44257;44.804;10.220;2023-11-21T04:37:29;9.80;99.90
58469;DHT22;44257;44.804;10.220;2023-11-21T04:39:55;9.80;99.90
58469;DHT22;44257;44.804;10.220;2023-11-21T04:42:21;9.80;99.90
58469;DHT22;44257;44.804;10.220;2023-11-21T04:44:48;9.80;99.90
58469;DHT22;44257;44.804;10.220;2023-11-21T04:47:13;9.80;99.90
58469;DHT22;44257;44.804;10.220;2023-11-21T04:49:42;9.80;99.90
58469;DHT22;44257;44.804;10.220;2023-11-21T04:52:07;9.70;99.90
58469;DHT22;44257;44.804;10.220;2023-11-21T04:54:35;9.60;99.90
58469;DHT22;44257;44.804;10.220;2023-11-21T04:57:01;9.60;99.90
58469;DHT22;44257;44.804;10.220;2023-11-21T04:59:27;9.60;99.90
58469;DHT22;44257;44.804;10.220;2023-11-21T05:01:53;9.60;99.90
58469;DHT22;44257;44.804;10.220;2023-11-21T05:04:20;9.60;99.90
58469;DHT22;44257;44.804;10.220;2023-11-21T05:06:48;9.60;99.90
58469;DHT22;44257;44.804;10.220;2023-11-21T05:09:13;9.60;99.90
58469;DHT22;44257;44.804;10.220;2023-11-21T05:11:40;9.60;99.90
58469;DHT22;44257;44.804;10.220;2023-11-21T05:14:06;9.60;99.90
58469;DHT22;44257;44.804;10.220;2023-11-21T05:16:32;9.60;99.90
58469;DHT22;44257;44.804;10.220;2023-11-21T05:18:59;9.60;99.90
58469;DHT22;44257;44.804;10.220;2023-11-21T05:21:30;9.60;99.90
58469;DHT22;44257;44.804;10.220;2023-11-21T05:23:58;9.60;99.90
58469;DHT22;44257;44.804;10.220;2023-11-21T05:26:24;9.60;99.90
58469;DHT22;44257;44.804;10.220;2023-11-21T05:28:50;9.60;99.90
58469;DHT22;44257;44.804;10.220;2023-11-21T05:31:16;9.60;99.90
58469;DHT22;44257;44.804;10.220;2023-11-21T05:33:41;9.60;99.90
58469;DHT22;44257;44.804;10.220;2023-11-21T05:36:08;9.60;99.90
58469;DHT22;44257;44.804;10.220;2023-11-21T05:38:36;9.60;99.90
58469;DHT22;44257;44.804;10.220;2023-11-21T05:41:02;9.60;99.90
58469;DHT22;44257;44.804;10.220;2023-11-21T05:43:29;9.60;99.90
58469;DHT22;44257;44.804;10.220;2023-11-21T05:45:56;9.60;99.90
58469;DHT22;44257;44.804;10.220;2023-11-21T05:48:22;9.60;99.90
58469;DHT22;44257;44.804;10.220;2023-11-21T05:50:49;9.60;99.90
58469;DHT22;44257;44.804;10.220;2023-11-21T05:53:15;9.60;99.90
58469;DHT22;44257;44.804;10.220;2023-11-21T05:55:42;9.70;99.90
58469;DHT22;44257;44.804;10.220;2023-11-21T05:58:08;9.70;99.90
58469;DHT22;44257;44.804;10.220;2023-11-21T06:00:35;9.70;99.90
58469;DHT22;44257;44.804;10.220;2023-11-21T06:03:01;9.70;99.90
58469;DHT22;44257;44.804;10.220;2023-11-21T06:05:28;9.70;99.90
58469;DHT22;44257;44.804;10.220;2023-11-21T06:07:55;9.70;99.90
58469;DHT22;44257;44.804;10.220;2023-11-21T06:10:24;9.70;99.90
58469;DHT22;44257;44.804;10.220;2023-11-21T06:12:50;9.80;99.90
58469;DHT22;44257;44.804;10.220;2023-11-21T06:15:17;9.80;99.90
58469;DHT22;44257;44.804;10.220;2023-11-21T06:17:44;9.80;99.90
58469;DHT22;44257;44.804;10.220;2023-11-21T06:20:15;9.80;99.90
58469;DHT22;44257;44.804;10.220;2023-11-21T06:22:43;9.80;99.90
58469;DHT22;44257;44.804;10.220;2023-11-21T06:25:10;9.90;99.90
58469;DHT22;44257;44.804;10.220;2023-11-21T06:27:46;9.90;99.90
58469;DHT22;44257;44.804;10.220;2023-11-21T06:30:13;9.90;99.90
58469;DHT22;44257;44.804;10.220;2023-11-21T06:32:41;9.90;99.90
58469;DHT22;44257;44.804;10.220;2023-11-21T06:35:08;9.90;99.90
58469;DHT22;44257;44.804;10.220;2023-11-21T06:37:37;9.90;99.90
58469;DHT22;44257;44.804;10.220;2023-11-21T06:40:04;9.90;99.90
58469;DHT22;44257;44.804;10.220;2023-11-21T06:42:30;10.00;99.90
58469;DHT22;44257;44.804;10.220;2023-11-21T06:44:57;10.00;99.90
58469;DHT22;44257;44.804;10.220;2023-11-21T06:47:23;10.00;99.90
58469;DHT22;44257;44.804;10.220;2023-11-21T06:49:53;10.00;99.90
58469;DHT22;44257;44.804;10.220;2023-11-21T06:52:19;10.10;99.90
58469;DHT22;44257;44.804;10.220;2023-11-21T06:54:47;10.10;99.90
58469;DHT22;44257;44.804;10.220;2023-11-21T06:57:13;10.10;99.90
58469;DHT22;44257;44.804;10.220;2023-11-21T06:59:39;10.10;99.90
58469;DHT22;44257;44.804;10.220;2023-11-21T07:02:04;10.10;99.90
58469;DHT22;44257;44.804;10.220;2023-11-21T07:04:36;10.10;99.90
58469;DHT22;44257;44.804;10.220;2023-11-21T07:07:03;10.20;99.90
58469;DHT22;44257;44.804;10.220;2023-11-21T07:09:30;10.20;99.90
58469;DHT22;44257;44.804;10.220;2023-11-21T07:11:56;10.20;99.90
58469;DHT22;44257;44.804;10.220;2023-11-21T07:14:22;10.20;99.90
58469;DHT22;44257;44.804;10.220;2023-11-21T07:16:48;10.20;99.90
58469;DHT22;44257;44.804;10.220;2023-11-21T07:19:14;10.20;99.90
58469;DHT22;44257;44.804;10.220;2023-11-21T07:21:40;10.20;99.90
58469;DHT22;44257;44.804;10.220;2023-11-21T07:24:07;10.20;99.90
58469;DHT22;44257;44.804;10.220;2023-11-21T07:26:34;10.30;99.90
58469;DHT22;44257;44.804;10.220;2023-11-21T07:29:02;10.30;99.90
58469;DHT22;44257;44.804;10.220;2023-11-21T07:31:28;10.20;99.90
58469;DHT22;44257;44.804;10.220;2023-11-21T07:33:54;10.20;99.90
58469;DHT22;44257;44.804;10.220;2023-11-21T07:36:23;10.10;99.90
58469;DHT22;44257;44.804;10.220;2023-11-21T07:38:50;10.20;99.90
58469;DHT22;44257;44.804;10.220;2023-11-21T07:41:16;10.20;99.90
58469;DHT22;44257;44.804;10.220;2023-11-21T07:43:44;10.30;99.90
58469;DHT22;44257;44.804;10.220;2023-11-21T07:46:10;10.30;99.90
58469;DHT22;44257;44.804;10.220;2023-11-21T07:48:40;10.30;99.90
58469;DHT22;44257;44.804;10.220;2023-11-21T07:51:09;10.30;99.90
58469;DHT22;44257;44.804;10.220;2023-11-21T07:53:36;10.20;99.90
58469;DHT22;44257;44.804;10.220;2023-11-21T07:56:06;10.20;99.90
58469;DHT22;44257;44.804;10.220;2023-11-21T07:58:35;10.20;99.90
58469;DHT22;44257;44.804;10.220;2023-11-21T08:01:01;10.20;99.90
58469;DHT22;44257;44.804;10.220;2023-11-21T08:03:28;10.30;99.90
58469;DHT22;44257;44.804;10.220;2023-11-21T08:05:58;10.50;99.90
58469;DHT22;44257;44.804;10.220;2023-11-21T08:08:25;10.70;99.90
58469;DHT22;44257;44.804;10.220;2023-11-21T08:10:52;10.80;99.90
58469;DHT22;44257;44.804;10.220;2023-11-21T08:13:24;10.90;99.90
58469;DHT22;44257;44.804;10.220;2023-11-21T08:15:50;11.00;99.90
58469;DHT22;44257;44.804;10.220;2023-11-21T08:18:19;11.00;99.90
58469;DHT22;44257;44.804;10.220;2023-11-21T08:20:45;11.00;99.90
58469;DHT22;44257;44.804;10.220;2023-11-21T08:23:14;11.10;99.90
58469;DHT22;44257;44.804;10.220;2023-11-21T08:25:42;11.10;99.90
58469;DHT22;44257;44.804;10.220;2023-11-21T08:28:08;11.00;99.90
58469;DHT22;44257;44.804;10.220;2023-11-21T08:30:34;11.10;99.90
58469;DHT22;44257;44.804;10.220;2023-11-21T08:33:00;11.10;99.90
58469;DHT22;44257;44.804;10.220;2023-11-21T08:35:26;11.10;99.90
58469;DHT22;44257;44.804;10.220;2023-11-21T08:37:52;11.20;99.90
58469;DHT22;44257;44.804;10.220;2023-11-21T08:40:21;11.20;99.90
58469;DHT22;44257;44.804;10.220;2023-11-21T08:42:47;11.20;99.90
58469;DHT22;44257;44.804;10.220;2023-11-21T08:45:17;11.00;99.90
58469;DHT22;44257;44.804;10.220;2023-11-21T08:47:43;10.90;99.90
58469;DHT22;44257;44.804;10.220;2023-11-21T08:50:12;10.70;99.90
58469;DHT22;44257;44.804;10.220;2023-11-21T08:52:39;10.50;99.90
58469;DHT22;44257;44.804;10.220;2023-11-21T08:55:06;10.40;99.90
58469;DHT22;44257;44.804;10.220;2023-11-21T08:57:35;10.30;99.90
58469;DHT22;44257;44.804;10.220;2023-11-21T09:00:02;10.20;99.90
58469;DHT22;44257;44.804;10.220;2023-11-21T09:02:29;10.20;99.90
58469;DHT22;44257;44.804;10.220;2023-11-21T09:04:54;10.20;99.90
58469;DHT22;44257;44.804;10.220;2023-11-21T09:07:20;10.10;99.90
58469;DHT22;44257;44.804;10.220;2023-11-21T09:09:49;10.10;99.90
58469;DHT22;44257;44.804;10.220;2023-11-21T09:12:16;10.10;99.90
58469;DHT22;44257;44.804;10.220;2023-11-21T09:14:43;10.10;99.90
58469;DHT22;44257;44.804;10.220;2023-11-21T09:17:12;10.10;99.90
58469;DHT22;44257;44.804;10.220;2023-11-21T09:19:40;10.20;99.90
58469;DHT22;44257;44.804;10.220;2023-11-21T09:22:06;10.20;99.90
58469;DHT22;44257;44.804;10.220;2023-11-21T09:24:32;10.20;99.90
58469;DHT22;44257;44.804;10.220;2023-11-21T09:26:59;10.20;99.90
58469;DHT22;44257;44.804;10.220;2023-11-21T09:29:28;10.20;99.90
58469;DHT22;44257;44.804;10.220;2023-11-21T09:31:55;10.20;99.90
58469;DHT22;44257;44.804;10.220;2023-11-21T09:34:21;10.20;99.90
58469;DHT22;44257;44.804;10.220;2023-11-21T09:36:47;10.10;99.90
58469;DHT22;44257;44.804;10.220;2023-11-21T09:39:14;10.10;99.90
58469;DHT22;44257;44.804;10.220;2023-11-21T09:41:42;10.10;99.90
58469;DHT22;44257;44.804;10.220;2023-11-21T09:44:13;10.20;99.90
58469;DHT22;44257;44.804;10.220;2023-11-21T09:46:42;10.20;99.90
58469;DHT22;44257;44.804;10.220;2023-11-21T09:49:13;10.30;99.90
58469;DHT22;44257;44.804;10.220;2023-11-21T09:51:40;10.40;99.90
58469;DHT22;44257;44.804;10.220;2023-11-21T09:54:12;10.40;99.90
58469;DHT22;44257;44.804;10.220;2023-11-21T09:56:39;10.40;99.90
58469;DHT22;44257;44.804;10.220;2023-11-21T09:59:05;10.40;99.90
58469;DHT22;44257;44.804;10.220;2023-11-21T10:01:36;10.50;99.90
58469;DHT22;44257;44.804;10.220;2023-11-21T10:04:03;10.60;99.90
58469;DHT22;44257;44.804;10.220;2023-11-21T10:06:30;10.70;99.90
58469;DHT22;44257;44.804;10.220;2023-11-21T10:08:56;10.80;99.90
58469;DHT22;44257;44.804;10.220;2023-11-21T10:11:27;10.90;99.90
58469;DHT22;44257;44.804;10.220;2023-11-21T10:13:55;11.00;99.90
58469;DHT22;44257;44.804;10.220;2023-11-21T10:16:26;11.00;99.90
58469;DHT22;44257;44.804;10.220;2023-11-21T10:18:53;11.00;99.90
58469;DHT22;44257;44.804;10.220;2023-11-21T10:21:22;11.10;99.90
58469;DHT22;44257;44.804;10.220;2023-11-21T10:23:48;11.10;99.90
58469;DHT22;44257;44.804;10.220;2023-11-21T10:26:14;11.10;99.90
58469;DHT22;44257;44.804;10.220;2023-11-21T10:28:58;11.20;99.90
58469;DHT22;44257;44.804;10.220;2023-11-21T10:31:28;11.30;99.90
58469;DHT22;44257;44.804;10.220;2023-11-21T10:34:16;11.30;99.90
58469;DHT22;44257;44.804;10.220;2023-11-21T10:36:42;11.30;99.90
58469;DHT22;44257;44.804;10.220;2023-11-21T10:39:08;11.30;99.90
58469;DHT22;44257;44.804;10.220;2023-11-21T10:41:35;11.30;99.90
58469;DHT22;44257;44.804;10.220;2023-11-21T10:44:02;11.30;99.90
58469;DHT22;44257;44.804;10.220;2023-11-21T10:46:33;11.40;99.90
58469;DHT22;44257;44.804;10.220;2023-11-21T10:49:00;11.40;99.90
58469;DHT22;44257;44.804;10.220;2023-11-21T10:51:26;11.50;99.90
58469;DHT22;44257;44.804;10.220;2023-11-21T10:53:52;11.40;99.90
58469;DHT22;44257;44.804;10.220;2023-11-21T10:56:18;11.50;99.90
58469;DHT22;44257;44.804;10.220;2023-11-21T10:58:49;11.50;99.90
58469;DHT22;44257;44.804;10.220;2023-11-21T11:01:17;11.60;99.90
58469;DHT22;44257;44.804;10.220;2023-11-21T11:03:44;11.60;99.90
58469;DHT22;44257;44.804;10.220;2023-11-21T11:06:10;11.60;99.90
58469;DHT22;44257;44.804;10.220;2023-11-21T11:08:40;11.60;99.90
58469;DHT22;44257;44.804;10.220;2023-11-21T11:11:06;11.60;99.90
58469;DHT22;44257;44.804;10.220;2023-11-21T11:13:33;11.60;99.90
58469;DHT22;44257;44.804;10.220;2023-11-21T11:16:00;11.70;99.90
58469;DHT22;44257;44.804;10.220;2023-11-21T11:18:28;11.80;99.90
58469;DHT22;44257;44.804;10.220;2023-11-21T11:21:00;12.00;99.90
58469;DHT22;44257;44.804;10.220;2023-11-21T11:26:50;12.40;99.90
58469;DHT22;44257;44.804;10.220;2023-11-21T11:29:38;12.60;99.90
58469;DHT22;44257;44.804;10.220;2023-11-21T11:32:31;12.80;99.90
58469;DHT22;44257;44.804;10.220;2023-11-21T11:35:19;12.90;99.90
58469;DHT22;44257;44.804;10.220;2023-11-21T11:37:49;13.10;99.90
58469;DHT22;44257;44.804;10.220;2023-11-21T11:40:15;13.20;99.90
58469;DHT22;44257;44.804;10.220;2023-11-21T11:43:00;13.20;99.90
58469;DHT22;44257;44.804;10.220;2023-11-21T11:45:34;13.20;99.90
58469;DHT22;44257;44.804;10.220;2023-11-21T11:48:01;13.30;99.90
58469;DHT22;44257;44.804;10.220;2023-11-21T11:50:29;13.20;99.90
58469;DHT22;44257;44.804;10.220;2023-11-21T11:53:12;13.10;99.90
58469;DHT22;44257;44.804;10.220;2023-11-21T11:55:38;12.90;99.90
58469;DHT22;44257;44.804;10.220;2023-11-21T11:58:06;12.80;99.90
58469;DHT22;44257;44.804;10.220;2023-11-21T12:03:01;12.70;99.90
58469;DHT22;44257;44.804;10.220;2023-11-21T12:05:34;12.70;99.90
58469;DHT22;44257;44.804;10.220;2023-11-21T12:08:05;12.80;99.90
58469;DHT22;44257;44.804;10.220;2023-11-21T12:10:35;12.80;99.90
58469;DHT22;44257;44.804;10.220;2023-11-21T12:13:05;12.80;99.90
58469;DHT22;44257;44.804;10.220;2023-11-21T12:15:33;12.90;99.90
58469;DHT22;44257;44.804;10.220;2023-11-21T12:18:00;13.00;99.90
58469;DHT22;44257;44.804;10.220;2023-11-21T12:20:27;13.00;99.90
58469;DHT22;44257;44.804;10.220;2023-11-21T12:22:55;13.00;99.90
58469;DHT22;44257;44.804;10.220;2023-11-21T12:25:26;13.00;99.90
58469;DHT22;44257;44.804;10.220;2023-11-21T12:27:56;13.10;99.90
58469;DHT22;44257;44.804;10.220;2023-11-21T12:30:24;13.00;99.90
58469;DHT22;44257;44.804;10.220;2023-11-21T12:32:52;13.00;99.90
58469;DHT22;44257;44.804;10.220;2023-11-21T12:35:19;13.20;99.90
58469;DHT22;44257;44.804;10.220;2023-11-21T12:37:47;13.30;99.90
58469;DHT22;44257;44.804;10.220;2023-11-21T12:40:14;13.30;99.90
58469;DHT22;44257;44.804;10.220;2023-11-21T12:42:46;13.30;99.90
58469;DHT22;44257;44.804;10.220;2023-11-21T12:47:47;13.50;99.90
58469;DHT22;44257;44.804;10.220;2023-11-21T12:50:17;13.60;99.90
58469;DHT22;44257;44.804;10.220;2023-11-21T12:52:47;13.70;99.90
58469;DHT22;44257;44.804;10.220;2023-11-21T12:55:17;13.80;99.90
58469;DHT22;44257;44.804;10.220;2023-11-21T12:57:44;13.80;99.90
58469;DHT22;44257;44.804;10.220;2023-11-21T13:00:12;13.90;99.90
58469;DHT22;44257;44.804;10.220;2023-11-21T13:02:51;14.00;99.90
58469;DHT22;44257;44.804;10.220;2023-11-21T13:05:30;14.00;99.90
58469;DHT22;44257;44.804;10.220;2023-11-21T13:07:58;14.10;99.90
58469;DHT22;44257;44.804;10.220;2023-11-21T13:10:26;14.10;99.90
58469;DHT22;44257;44.804;10.220;2023-11-21T13:13:00;14.20;99.90
58469;DHT22;44257;44.804;10.220;2023-11-21T13:15:29;14.10;99.90
58469;DHT22;44257;44.804;10.220;2023-11-21T13:17:57;14.20;99.90
58469;DHT22;44257;44.804;10.220;2023-11-21T13:20:26;14.20;99.90
58469;DHT22;44257;44.804;10.220;2023-11-21T13:22:54;14.20;99.90
58469;DHT22;44257;44.804;10.220;2023-11-21T13:25:23;14.20;99.90
58469;DHT22;44257;44.804;10.220;2023-11-21T13:27:56;14.30;99.90
58469;DHT22;44257;44.804;10.220;2023-11-21T13:30:22;14.30;99.90
58469;DHT22;44257;44.804;10.220;2023-11-21T13:32:55;14.30;99.90
58469;DHT22;44257;44.804;10.220;2023-11-21T13:35:30;14.30;99.90
58469;DHT22;44257;44.804;10.220;2023-11-21T13:38:07;14.20;99.90
58469;DHT22;44257;44.804;10.220;2023-11-21T13:40:35;14.10;99.90
58469;DHT22;44257;44.804;10.220;2023-11-21T13:43:16;14.00;99.90
58469;DHT22;44257;44.804;10.220;2023-11-21T13:45:43;13.90;99.90
58469;DHT22;44257;44.804;10.220;2023-11-21T13:48:10;13.80;99.90
58469;DHT22;44257;44.804;10.220;2023-11-21T13:50:48;13.70;99.90
58469;DHT22;44257;44.804;10.220;2023-11-21T13:53:32;13.60;99.90
58469;DHT22;44257;44.804;10.220;2023-11-21T13:56:02;13.50;99.90
58469;DHT22;44257;44.804;10.220;2023-11-21T13:58:27;13.40;99.90
58469;DHT22;44257;44.804;10.220;2023-11-21T14:01:26;13.40;99.90
58469;DHT22;44257;44.804;10.220;2023-11-21T14:04:13;13.30;99.90
58469;DHT22;44257;44.804;10.220;2023-11-21T14:06:43;13.20;99.90
58469;DHT22;44257;44.804;10.220;2023-11-21T14:09:24;13.20;99.90
58469;DHT22;44257;44.804;10.220;2023-11-21T14:11:55;13.10;99.90
58469;DHT22;44257;44.804;10.220;2023-11-21T14:14:25;13.10;99.90
58469;DHT22;44257;44.804;10.220;2023-11-21T14:16:52;13.00;99.90
58469;DHT22;44257;44.804;10.220;2023-11-21T14:19:18;12.90;99.90
58469;DHT22;44257;44.804;10.220;2023-11-21T14:21:44;12.80;99.90
58469;DHT22;44257;44.804;10.220;2023-11-21T14:24:12;12.80;99.90
58469;DHT22;44257;44.804;10.220;2023-11-21T14:26:45;12.70;99.90
58469;DHT22;44257;44.804;10.220;2023-11-21T14:29:15;12.60;99.90
58469;DHT22;44257;44.804;10.220;2023-11-21T14:31:45;12.60;99.90
58469;DHT22;44257;44.804;10.220;2023-11-21T14:34:11;12.50;99.90
58469;DHT22;44257;44.804;10.220;2023-11-21T14:36:39;12.40;99.90
58469;DHT22;44257;44.804;10.220;2023-11-21T14:39:05;12.40;99.90
58469;DHT22;44257;44.804;10.220;2023-11-21T14:41:41;12.40;99.90
58469;DHT22;44257;44.804;10.220;2023-11-21T14:44:09;12.40;99.90
58469;DHT22;44257;44.804;10.220;2023-11-21T14:46:38;12.30;99.90
58469;DHT22;44257;44.804;10.220;2023-11-21T14:49:05;12.30;99.90
58469;DHT22;44257;44.804;10.220;2023-11-21T14:51:48;12.20;99.90
58469;DHT22;44257;44.804;10.220;2023-11-21T14:54:34;12.20;99.90
58469;DHT22;44257;44.804;10.220;2023-11-21T14:57:10;12.20;99.90
58469;DHT22;44257;44.804;10.220;2023-11-21T14:59:48;12.20;99.90
58469;DHT22;44257;44.804;10.220;2023-11-21T15:02:18;12.10;99.90
58469;DHT22;44257;44.804;10.220;2023-11-21T15:04:49;12.00;99.90
58469;DHT22;44257;44.804;10.220;2023-11-21T15:07:18;12.00;99.90
58469;DHT22;44257;44.804;10.220;2023-11-21T15:09:44;12.00;99.90
58469;DHT22;44257;44.804;10.220;2023-11-21T15:12:11;11.90;99.90
58469;DHT22;44257;44.804;10.220;2023-11-21T15:14:48;11.90;99.90
58469;DHT22;44257;44.804;10.220;2023-11-21T15:17:17;11.80;99.90
58469;DHT22;44257;44.804;10.220;2023-11-21T15:19:52;11.80;99.90
58469;DHT22;44257;44.804;10.220;2023-11-21T15:22:19;11.80;99.90
58469;DHT22;44257;44.804;10.220;2023-11-21T15:24:45;11.80;99.90
58469;DHT22;44257;44.804;10.220;2023-11-21T15:27:15;11.80;99.90
58469;DHT22;44257;44.804;10.220;2023-11-21T15:29:42;11.70;99.90
58469;DHT22;44257;44.804;10.220;2023-11-21T15:32:09;11.70;99.90
58469;DHT22;44257;44.804;10.220;2023-11-21T15:34:35;11.70;99.90
58469;DHT22;44257;44.804;10.220;2023-11-21T15:37:04;11.70;99.90